sensor_id;sensor_type;location;lat;lon;timestamp;P1;durP1;ratioP1;P2;durP2;ratioP2
1294;SDS011;640;48.310;11.728;2023-04-15T00:00:39;7.18;;;2.90;;
1294;SDS011;640;48.310;11.728;2023-04-15T00:03:08;4.50;;;2.53;;
1294;SDS011;640;48.310;11.728;2023-04-15T00:05:37;4.70;;;2.75;;
1294;SDS011;640;48.310;11.728;2023-04-15T00:08:06;3.60;;;2.63;;
1294;SDS011;640;48.310;11.728;2023-04-15T00:10:34;5.57;;;2.50;;
1294;SDS011;640;48.310;11.728;2023-04-15T00:13:03;4.90;;;2.50;;
1294;SDS011;640;48.310;11.728;2023-04-15T00:15:31;5.75;;;2.70;;
1294;SDS011;640;48.310;11.728;2023-04-15T00:17:59;5.47;;;3.28;;
1294;SDS011;640;48.310;11.728;2023-04-15T00:20:28;6.28;;;2.78;;
1294;SDS011;640;48.310;11.728;2023-04-15T00:22:57;7.30;;;2.78;;
1294;SDS011;640;48.310;11.728;2023-04-15T00:25:26;3.55;;;2.35;;
1294;SDS011;640;48.310;11.728;2023-04-15T00:27:55;6.85;;;3.17;;
1294;SDS011;640;48.310;11.728;2023-04-15T00:30:23;5.22;;;2.70;;
1294;SDS011;640;48.310;11.728;2023-04-15T00:32:52;5.57;;;3.65;;
1294;SDS011;640;48.310;11.728;2023-04-15T00:35:21;5.85;;;2.72;;
1294;SDS011;640;48.310;11.728;2023-04-15T00:37:49;12.73;;;3.67;;
1294;SDS011;640;48.310;11.728;2023-04-15T00:40:20;5.95;;;3.28;;
1294;SDS011;640;48.310;11.728;2023-04-15T00:42:50;8.07;;;3.35;;
1294;SDS011;640;48.310;11.728;2023-04-15T00:45:19;8.30;;;3.47;;
1294;SDS011;640;48.310;11.728;2023-04-15T00:47:47;8.77;;;3.20;;
1294;SDS011;640;48.310;11.728;2023-04-15T00:50:15;5.68;;;3.42;;
1294;SDS011;640;48.310;11.728;2023-04-15T00:52:44;7.82;;;3.20;;
1294;SDS011;640;48.310;11.728;2023-04-15T00:55:12;7.95;;;4.20;;
1294;SDS011;640;48.310;11.728;2023-04-15T00:57:42;5.32;;;3.72;;
1294;SDS011;640;48.310;11.728;2023-04-15T01:00:11;5.65;;;3.30;;
1294;SDS011;640;48.310;11.728;2023-04-15T01:02:40;4.63;;;3.00;;
1294;SDS011;640;48.310;11.728;2023-04-15T01:05:08;5.95;;;3.00;;
1294;SDS011;640;48.310;11.728;2023-04-15T01:07:37;7.63;;;3.85;;
1294;SDS011;640;48.310;11.728;2023-04-15T01:10:06;5.57;;;3.03;;
1294;SDS011;640;48.310;11.728;2023-04-15T01:12:35;6.35;;;3.50;;
1294;SDS011;640;48.310;11.728;2023-04-15T01:15:07;7.32;;;4.22;;
1294;SDS011;640;48.310;11.728;2023-04-15T01:17:37;11.10;;;4.40;;
1294;SDS011;640;48.310;11.728;2023-04-15T01:20:06;5.82;;;3.83;;
1294;SDS011;640;48.310;11.728;2023-04-15T01:22:37;5.60;;;2.83;;
1294;SDS011;640;48.310;11.728;2023-04-15T01:25:08;5.82;;;3.70;;
1294;SDS011;640;48.310;11.728;2023-04-15T01:27:39;8.43;;;3.90;;
1294;SDS011;640;48.310;11.728;2023-04-15T01:30:08;7.53;;;4.18;;
1294;SDS011;640;48.310;11.728;2023-04-15T01:32:38;6.03;;;3.67;;
1294;SDS011;640;48.310;11.728;2023-04-15T01:35:06;7.47;;;4.55;;
1294;SDS011;640;48.310;11.728;2023-04-15T01:37:35;7.43;;;3.72;;
1294;SDS011;640;48.310;11.728;2023-04-15T01:40:04;7.22;;;3.88;;
1294;SDS011;640;48.310;11.728;2023-04-15T01:42:34;8.68;;;4.35;;
1294;SDS011;640;48.310;11.728;2023-04-15T01:45:05;9.02;;;4.30;;
1294;SDS011;640;48.310;11.728;2023-04-15T01:47:34;4.75;;;3.58;;
1294;SDS011;640;48.310;11.728;2023-04-15T01:50:02;8.23;;;3.30;;
1294;SDS011;640;48.310;11.728;2023-04-15T01:52:31;7.40;;;4.07;;
1294;SDS011;640;48.310;11.728;2023-04-15T01:54:59;7.43;;;4.22;;
1294;SDS011;640;48.310;11.728;2023-04-15T01:57:27;6.72;;;3.67;;
1294;SDS011;640;48.310;11.728;2023-04-15T01:59:56;7.85;;;4.25;;
1294;SDS011;640;48.310;11.728;2023-04-15T02:02:25;8.05;;;4.53;;
1294;SDS011;640;48.310;11.728;2023-04-15T02:04:54;8.05;;;4.57;;
1294;SDS011;640;48.310;11.728;2023-04-15T02:07:22;11.40;;;4.20;;
1294;SDS011;640;48.310;11.728;2023-04-15T02:09:51;6.55;;;3.70;;
1294;SDS011;640;48.310;11.728;2023-04-15T02:12:19;8.02;;;4.50;;
1294;SDS011;640;48.310;11.728;2023-04-15T02:14:48;7.30;;;4.10;;
1294;SDS011;640;48.310;11.728;2023-04-15T02:17:16;7.85;;;4.70;;
1294;SDS011;640;48.310;11.728;2023-04-15T02:19:46;8.13;;;4.47;;
1294;SDS011;640;48.310;11.728;2023-04-15T02:22:15;8.30;;;3.58;;
1294;SDS011;640;48.310;11.728;2023-04-15T02:24:44;8.32;;;4.68;;
1294;SDS011;640;48.310;11.728;2023-04-15T02:27:16;8.63;;;4.22;;
1294;SDS011;640;48.310;11.728;2023-04-15T02:29:44;7.25;;;4.35;;
1294;SDS011;640;48.310;11.728;2023-04-15T02:32:13;9.73;;;4.70;;
1294;SDS011;640;48.310;11.728;2023-04-15T02:34:41;12.18;;;4.78;;
1294;SDS011;640;48.310;11.728;2023-04-15T02:37:11;9.48;;;4.55;;
1294;SDS011;640;48.310;11.728;2023-04-15T02:39:40;7.60;;;4.80;;
1294;SDS011;640;48.310;11.728;2023-04-15T02:42:08;6.75;;;4.20;;
1294;SDS011;640;48.310;11.728;2023-04-15T02:44:37;9.30;;;5.25;;
1294;SDS011;640;48.310;11.728;2023-04-15T02:47:05;12.10;;;4.90;;
1294;SDS011;640;48.310;11.728;2023-04-15T02:49:34;8.05;;;4.68;;
1294;SDS011;640;48.310;11.728;2023-04-15T02:52:02;7.65;;;4.85;;
1294;SDS011;640;48.310;11.728;2023-04-15T02:54:33;8.63;;;3.97;;
1294;SDS011;640;48.310;11.728;2023-04-15T02:57:02;9.00;;;4.30;;
1294;SDS011;640;48.310;11.728;2023-04-15T02:59:32;10.80;;;5.88;;
1294;SDS011;640;48.310;11.728;2023-04-15T03:02:00;8.93;;;5.80;;
1294;SDS011;640;48.310;11.728;2023-04-15T03:04:29;9.63;;;5.05;;
1294;SDS011;640;48.310;11.728;2023-04-15T03:06:57;10.30;;;5.88;;
1294;SDS011;640;48.310;11.728;2023-04-15T03:09:26;10.80;;;4.72;;
1294;SDS011;640;48.310;11.728;2023-04-15T03:11:56;7.00;;;4.75;;
1294;SDS011;640;48.310;11.728;2023-04-15T03:14:24;9.45;;;5.68;;
1294;SDS011;640;48.310;11.728;2023-04-15T03:16:52;9.05;;;5.32;;
1294;SDS011;640;48.310;11.728;2023-04-15T03:19:21;9.88;;;5.32;;
1294;SDS011;640;48.310;11.728;2023-04-15T03:21:50;10.18;;;5.75;;
1294;SDS011;640;48.310;11.728;2023-04-15T03:24:18;14.25;;;5.68;;
1294;SDS011;640;48.310;11.728;2023-04-15T03:26:47;10.18;;;6.05;;
1294;SDS011;640;48.310;11.728;2023-04-15T03:29:16;9.85;;;5.68;;
1294;SDS011;640;48.310;11.728;2023-04-15T03:31:45;11.13;;;5.30;;
1294;SDS011;640;48.310;11.728;2023-04-15T03:34:13;7.55;;;4.93;;
1294;SDS011;640;48.310;11.728;2023-04-15T03:36:41;10.77;;;5.03;;
1294;SDS011;640;48.310;11.728;2023-04-15T03:39:10;9.93;;;5.68;;
1294;SDS011;640;48.310;11.728;2023-04-15T03:41:38;8.25;;;5.32;;
1294;SDS011;640;48.310;11.728;2023-04-15T03:44:07;8.57;;;5.65;;
1294;SDS011;640;48.310;11.728;2023-04-15T03:46:36;10.40;;;5.20;;
1294;SDS011;640;48.310;11.728;2023-04-15T03:49:05;8.35;;;4.55;;
1294;SDS011;640;48.310;11.728;2023-04-15T03:51:33;9.82;;;5.10;;
1294;SDS011;640;48.310;11.728;2023-04-15T03:54:02;8.68;;;4.90;;
1294;SDS011;640;48.310;11.728;2023-04-15T03:56:31;10.35;;;4.60;;
1294;SDS011;640;48.310;11.728;2023-04-15T03:58:59;9.65;;;5.60;;
1294;SDS011;640;48.310;11.728;2023-04-15T04:01:28;7.68;;;4.40;;
1294;SDS011;640;48.310;11.728;2023-04-15T04:03:58;7.15;;;4.70;;
1294;SDS011;640;48.310;11.728;2023-04-15T04:06:27;9.38;;;5.68;;
1294;SDS011;640;48.310;11.728;2023-04-15T04:08:55;7.72;;;4.65;;
1294;SDS011;640;48.310;11.728;2023-04-15T04:11:23;11.77;;;5.97;;
1294;SDS011;640;48.310;11.728;2023-04-15T04:13:52;10.70;;;5.72;;
1294;SDS011;640;48.310;11.728;2023-04-15T04:16:20;10.80;;;4.78;;
1294;SDS011;640;48.310;11.728;2023-04-15T04:18:48;9.10;;;5.30;;
1294;SDS011;640;48.310;11.728;2023-04-15T04:21:18;8.23;;;5.10;;
1294;SDS011;640;48.310;11.728;2023-04-15T04:23:46;11.40;;;4.93;;
1294;SDS011;640;48.310;11.728;2023-04-15T04:26:15;11.40;;;6.00;;
1294;SDS011;640;48.310;11.728;2023-04-15T04:28:43;7.65;;;4.57;;
1294;SDS011;640;48.310;11.728;2023-04-15T04:31:13;6.73;;;3.83;;
1294;SDS011;640;48.310;11.728;2023-04-15T04:33:41;10.45;;;5.18;;
1294;SDS011;640;48.310;11.728;2023-04-15T04:36:09;10.68;;;5.40;;
1294;SDS011;640;48.310;11.728;2023-04-15T04:38:39;8.43;;;4.55;;
1294;SDS011;640;48.310;11.728;2023-04-15T04:41:07;8.90;;;4.87;;
1294;SDS011;640;48.310;11.728;2023-04-15T04:43:35;10.80;;;5.30;;
1294;SDS011;640;48.310;11.728;2023-04-15T04:46:04;6.25;;;3.47;;
1294;SDS011;640;48.310;11.728;2023-04-15T04:48:32;11.40;;;5.10;;
1294;SDS011;640;48.310;11.728;2023-04-15T04:51:01;5.78;;;3.50;;
1294;SDS011;640;48.310;11.728;2023-04-15T04:53:29;7.32;;;3.90;;
1294;SDS011;640;48.310;11.728;2023-04-15T04:55:59;5.53;;;3.78;;
1294;SDS011;640;48.310;11.728;2023-04-15T04:58:27;7.07;;;3.87;;
1294;SDS011;640;48.310;11.728;2023-04-15T05:00:55;6.75;;;3.80;;
1294;SDS011;640;48.310;11.728;2023-04-15T05:03:24;7.13;;;3.35;;
1294;SDS011;640;48.310;11.728;2023-04-15T05:05:53;5.90;;;3.20;;
1294;SDS011;640;48.310;11.728;2023-04-15T05:08:21;5.55;;;3.22;;
1294;SDS011;640;48.310;11.728;2023-04-15T05:10:50;5.28;;;3.40;;
1294;SDS011;640;48.310;11.728;2023-04-15T05:13:19;7.70;;;3.50;;
1294;SDS011;640;48.310;11.728;2023-04-15T05:15:48;5.07;;;3.47;;
1294;SDS011;640;48.310;11.728;2023-04-15T05:18:16;7.38;;;3.00;;
1294;SDS011;640;48.310;11.728;2023-04-15T05:20:44;6.40;;;4.07;;
1294;SDS011;640;48.310;11.728;2023-04-15T05:23:13;7.63;;;4.38;;
1294;SDS011;640;48.310;11.728;2023-04-15T05:25:41;9.07;;;3.42;;
1294;SDS011;640;48.310;11.728;2023-04-15T05:28:09;6.43;;;3.65;;
1294;SDS011;640;48.310;11.728;2023-04-15T05:30:39;7.47;;;4.03;;
1294;SDS011;640;48.310;11.728;2023-04-15T05:33:08;5.32;;;3.47;;
1294;SDS011;640;48.310;11.728;2023-04-15T05:35:37;5.53;;;2.83;;
1294;SDS011;640;48.310;11.728;2023-04-15T05:38:05;6.80;;;3.90;;
1294;SDS011;640;48.310;11.728;2023-04-15T05:40:33;6.55;;;3.17;;
1294;SDS011;640;48.310;11.728;2023-04-15T05:43:02;4.32;;;2.83;;
1294;SDS011;640;48.310;11.728;2023-04-15T05:45:30;8.35;;;3.33;;
1294;SDS011;640;48.310;11.728;2023-04-15T05:48:00;5.18;;;3.45;;
1294;SDS011;640;48.310;11.728;2023-04-15T05:50:28;3.97;;;2.40;;
1294;SDS011;640;48.310;11.728;2023-04-15T05:52:56;5.57;;;3.05;;
1294;SDS011;640;48.310;11.728;2023-04-15T05:55:24;6.47;;;3.78;;
1294;SDS011;640;48.310;11.728;2023-04-15T05:57:53;9.27;;;4.20;;
1294;SDS011;640;48.310;11.728;2023-04-15T06:00:21;6.03;;;3.00;;
1294;SDS011;640;48.310;11.728;2023-04-15T06:02:49;6.18;;;3.08;;
1294;SDS011;640;48.310;11.728;2023-04-15T06:05:19;7.57;;;3.90;;
1294;SDS011;640;48.310;11.728;2023-04-15T06:07:48;6.57;;;3.50;;
1294;SDS011;640;48.310;11.728;2023-04-15T06:10:17;7.43;;;3.95;;
1294;SDS011;640;48.310;11.728;2023-04-15T06:12:45;5.72;;;3.17;;
1294;SDS011;640;48.310;11.728;2023-04-15T06:15:14;4.97;;;3.22;;
1294;SDS011;640;48.310;11.728;2023-04-15T06:17:42;4.75;;;3.03;;
1294;SDS011;640;48.310;11.728;2023-04-15T06:20:11;5.85;;;3.30;;
1294;SDS011;640;48.310;11.728;2023-04-15T06:22:41;5.07;;;2.45;;
1294;SDS011;640;48.310;11.728;2023-04-15T06:25:09;3.92;;;2.42;;
1294;SDS011;640;48.310;11.728;2023-04-15T06:27:38;5.32;;;2.63;;
1294;SDS011;640;48.310;11.728;2023-04-15T06:30:06;5.90;;;3.05;;
1294;SDS011;640;48.310;11.728;2023-04-15T06:32:35;6.03;;;2.75;;
1294;SDS011;640;48.310;11.728;2023-04-15T06:35:04;3.22;;;1.88;;
1294;SDS011;640;48.310;11.728;2023-04-15T06:37:32;3.88;;;2.10;;
1294;SDS011;640;48.310;11.728;2023-04-15T06:40:02;5.70;;;2.17;;
1294;SDS011;640;48.310;11.728;2023-04-15T06:42:31;6.28;;;3.53;;
1294;SDS011;640;48.310;11.728;2023-04-15T06:45:00;4.68;;;1.95;;
1294;SDS011;640;48.310;11.728;2023-04-15T06:47:28;4.40;;;1.63;;
1294;SDS011;640;48.310;11.728;2023-04-15T06:49:57;6.40;;;2.47;;
1294;SDS011;640;48.310;11.728;2023-04-15T06:52:25;2.90;;;2.22;;
1294;SDS011;640;48.310;11.728;2023-04-15T06:54:53;2.75;;;1.38;;
1294;SDS011;640;48.310;11.728;2023-04-15T06:57:23;3.20;;;2.10;;
1294;SDS011;640;48.310;11.728;2023-04-15T06:59:51;7.33;;;2.80;;
1294;SDS011;640;48.310;11.728;2023-04-15T07:02:20;4.93;;;2.30;;
1294;SDS011;640;48.310;11.728;2023-04-15T07:04:49;2.88;;;1.67;;
1294;SDS011;640;48.310;11.728;2023-04-15T07:07:17;4.25;;;3.00;;
1294;SDS011;640;48.310;11.728;2023-04-15T07:09:45;5.43;;;2.13;;
1294;SDS011;640;48.310;11.728;2023-04-15T07:12:14;3.20;;;1.67;;
1294;SDS011;640;48.310;11.728;2023-04-15T07:14:43;3.03;;;1.92;;
1294;SDS011;640;48.310;11.728;2023-04-15T07:17:12;3.25;;;1.83;;
1294;SDS011;640;48.310;11.728;2023-04-15T07:19:40;3.25;;;2.25;;
1294;SDS011;640;48.310;11.728;2023-04-15T07:22:08;4.00;;;2.35;;
1294;SDS011;640;48.310;11.728;2023-04-15T07:24:36;3.63;;;1.88;;
1294;SDS011;640;48.310;11.728;2023-04-15T07:27:05;4.55;;;2.58;;
1294;SDS011;640;48.310;11.728;2023-04-15T07:29:33;3.30;;;2.25;;
1294;SDS011;640;48.310;11.728;2023-04-15T07:32:03;3.35;;;2.08;;
1294;SDS011;640;48.310;11.728;2023-04-15T07:34:32;4.13;;;2.40;;
1294;SDS011;640;48.310;11.728;2023-04-15T07:37:00;3.47;;;1.75;;
1294;SDS011;640;48.310;11.728;2023-04-15T07:39:29;4.30;;;2.58;;
1294;SDS011;640;48.310;11.728;2023-04-15T07:41:57;4.15;;;1.85;;
1294;SDS011;640;48.310;11.728;2023-04-15T07:44:25;5.90;;;2.75;;
1294;SDS011;640;48.310;11.728;2023-04-15T07:46:54;6.68;;;2.80;;
1294;SDS011;640;48.310;11.728;2023-04-15T07:49:24;4.00;;;2.45;;
1294;SDS011;640;48.310;11.728;2023-04-15T07:51:52;4.30;;;2.60;;
1294;SDS011;640;48.310;11.728;2023-04-15T07:54:20;8.43;;;2.88;;
1294;SDS011;640;48.310;11.728;2023-04-15T07:56:49;6.10;;;3.10;;
1294;SDS011;640;48.310;11.728;2023-04-15T07:59:17;6.32;;;2.35;;
1294;SDS011;640;48.310;11.728;2023-04-15T08:01:45;4.65;;;2.05;;
1294;SDS011;640;48.310;11.728;2023-04-15T08:04:14;8.15;;;2.72;;
1294;SDS011;640;48.310;11.728;2023-04-15T08:06:44;3.55;;;2.00;;
1294;SDS011;640;48.310;11.728;2023-04-15T08:09:14;2.15;;;1.55;;
1294;SDS011;640;48.310;11.728;2023-04-15T08:11:42;4.07;;;2.42;;
1294;SDS011;640;48.310;11.728;2023-04-15T08:14:10;4.78;;;2.50;;
1294;SDS011;640;48.310;11.728;2023-04-15T08:16:38;4.13;;;2.42;;
1294;SDS011;640;48.310;11.728;2023-04-15T08:19:07;4.35;;;2.65;;
1294;SDS011;640;48.310;11.728;2023-04-15T08:21:35;7.60;;;2.90;;
1294;SDS011;640;48.310;11.728;2023-04-15T08:24:05;4.88;;;2.75;;
1294;SDS011;640;48.310;11.728;2023-04-15T08:26:33;7.38;;;2.15;;
1294;SDS011;640;48.310;11.728;2023-04-15T08:29:02;4.03;;;2.22;;
1294;SDS011;640;48.310;11.728;2023-04-15T08:31:30;6.10;;;2.05;;
1294;SDS011;640;48.310;11.728;2023-04-15T08:33:59;5.65;;;2.75;;
1294;SDS011;640;48.310;11.728;2023-04-15T08:36:27;4.82;;;2.42;;
1294;SDS011;640;48.310;11.728;2023-04-15T08:38:55;4.50;;;2.15;;
1294;SDS011;640;48.310;11.728;2023-04-15T08:41:25;7.00;;;2.63;;
1294;SDS011;640;48.310;11.728;2023-04-15T08:43:56;5.80;;;2.65;;
1294;SDS011;640;48.310;11.728;2023-04-15T08:46:25;4.13;;;1.88;;
1294;SDS011;640;48.310;11.728;2023-04-15T08:48:54;4.57;;;2.22;;
1294;SDS011;640;48.310;11.728;2023-04-15T08:51:24;5.05;;;2.70;;
1294;SDS011;640;48.310;11.728;2023-04-15T08:53:53;7.38;;;2.65;;
1294;SDS011;640;48.310;11.728;2023-04-15T08:56:23;2.50;;;1.63;;
1294;SDS011;640;48.310;11.728;2023-04-15T08:58:53;7.85;;;2.50;;
1294;SDS011;640;48.310;11.728;2023-04-15T09:01:22;4.15;;;1.92;;
1294;SDS011;640;48.310;11.728;2023-04-15T09:03:50;3.65;;;2.20;;
1294;SDS011;640;48.310;11.728;2023-04-15T09:06:20;4.40;;;2.25;;
1294;SDS011;640;48.310;11.728;2023-04-15T09:08:51;4.75;;;2.00;;
1294;SDS011;640;48.310;11.728;2023-04-15T09:13:49;5.30;;;2.08;;
1294;SDS011;640;48.310;11.728;2023-04-15T09:16:19;6.63;;;2.53;;
1294;SDS011;640;48.310;11.728;2023-04-15T09:18:47;4.57;;;2.20;;
1294;SDS011;640;48.310;11.728;2023-04-15T09:21:16;5.55;;;2.38;;
1294;SDS011;640;48.310;11.728;2023-04-15T09:23:54;4.07;;;1.75;;
1294;SDS011;640;48.310;11.728;2023-04-15T09:26:30;5.60;;;2.35;;
1294;SDS011;640;48.310;11.728;2023-04-15T09:29:03;2.47;;;1.63;;
1294;SDS011;640;48.310;11.728;2023-04-15T09:31:34;8.15;;;2.40;;
1294;SDS011;640;48.310;11.728;2023-04-15T09:34:03;4.10;;;1.73;;
1294;SDS011;640;48.310;11.728;2023-04-15T09:36:37;4.65;;;2.30;;
1294;SDS011;640;48.310;11.728;2023-04-15T09:39:19;5.18;;;2.97;;
1294;SDS011;640;48.310;11.728;2023-04-15T09:41:51;3.92;;;1.88;;
1294;SDS011;640;48.310;11.728;2023-04-15T09:44:31;4.63;;;2.60;;
1294;SDS011;640;48.310;11.728;2023-04-15T09:47:01;5.55;;;3.20;;
1294;SDS011;640;48.310;11.728;2023-04-15T09:49:29;6.15;;;2.70;;
1294;SDS011;640;48.310;11.728;2023-04-15T09:51:59;6.57;;;3.17;;
1294;SDS011;640;48.310;11.728;2023-04-15T09:54:35;6.57;;;2.70;;
1294;SDS011;640;48.310;11.728;2023-04-15T09:57:05;7.53;;;3.05;;
1294;SDS011;640;48.310;11.728;2023-04-15T09:59:34;4.45;;;2.60;;
1294;SDS011;640;48.310;11.728;2023-04-15T10:02:04;4.97;;;2.40;;
1294;SDS011;640;48.310;11.728;2023-04-15T10:04:34;5.10;;;3.22;;
1294;SDS011;640;48.310;11.728;2023-04-15T10:07:04;6.65;;;2.65;;
1294;SDS011;640;48.310;11.728;2023-04-15T10:09:33;7.38;;;3.22;;
1294;SDS011;640;48.310;11.728;2023-04-15T10:12:02;7.20;;;2.78;;
1294;SDS011;640;48.310;11.728;2023-04-15T10:14:32;3.85;;;2.33;;
1294;SDS011;640;48.310;11.728;2023-04-15T10:17:03;9.02;;;3.13;;
1294;SDS011;640;48.310;11.728;2023-04-15T10:19:32;2.20;;;1.38;;
1294;SDS011;640;48.310;11.728;2023-04-15T10:22:04;5.13;;;3.03;;
1294;SDS011;640;48.310;11.728;2023-04-15T10:24:33;4.65;;;2.55;;
1294;SDS011;640;48.310;11.728;2023-04-15T10:27:02;5.63;;;2.88;;
1294;SDS011;640;48.310;11.728;2023-04-15T10:29:31;8.45;;;2.67;;
1294;SDS011;640;48.310;11.728;2023-04-15T10:31:59;6.35;;;3.80;;
1294;SDS011;640;48.310;11.728;2023-04-15T10:34:30;4.93;;;2.47;;
1294;SDS011;640;48.310;11.728;2023-04-15T10:37:00;5.80;;;2.65;;
1294;SDS011;640;48.310;11.728;2023-04-15T10:39:37;7.88;;;3.60;;
1294;SDS011;640;48.310;11.728;2023-04-15T10:42:06;5.90;;;3.40;;
1294;SDS011;640;48.310;11.728;2023-04-15T10:44:35;5.97;;;3.22;;
1294;SDS011;640;48.310;11.728;2023-04-15T10:47:13;6.97;;;3.15;;
1294;SDS011;640;48.310;11.728;2023-04-15T10:49:47;6.97;;;2.13;;
1294;SDS011;640;48.310;11.728;2023-04-15T10:52:17;5.07;;;3.40;;
1294;SDS011;640;48.310;11.728;2023-04-15T10:54:51;4.85;;;2.88;;
1294;SDS011;640;48.310;11.728;2023-04-15T10:57:33;9.93;;;3.63;;
1294;SDS011;640;48.310;11.728;2023-04-15T11:00:08;8.30;;;3.97;;
1294;SDS011;640;48.310;11.728;2023-04-15T11:02:42;5.65;;;3.40;;
1294;SDS011;640;48.310;11.728;2023-04-15T11:05:14;4.22;;;2.78;;
1294;SDS011;640;48.310;11.728;2023-04-15T11:07:47;3.17;;;2.30;;
1294;SDS011;640;48.310;11.728;2023-04-15T11:13:22;4.80;;;3.33;;
1294;SDS011;640;48.310;11.728;2023-04-15T11:15:59;5.93;;;3.22;;
1294;SDS011;640;48.310;11.728;2023-04-15T11:18:32;4.63;;;2.08;;
1294;SDS011;640;48.310;11.728;2023-04-15T11:21:03;7.22;;;3.95;;
1294;SDS011;640;48.310;11.728;2023-04-15T11:23:34;6.68;;;4.28;;
1294;SDS011;640;48.310;11.728;2023-04-15T11:26:05;6.00;;;4.07;;
1294;SDS011;640;48.310;11.728;2023-04-15T11:28:36;3.28;;;1.95;;
1294;SDS011;640;48.310;11.728;2023-04-15T11:31:06;7.97;;;4.25;;
1294;SDS011;640;48.310;11.728;2023-04-15T11:33:37;3.63;;;2.38;;
1294;SDS011;640;48.310;11.728;2023-04-15T11:36:12;11.98;;;4.15;;
1294;SDS011;640;48.310;11.728;2023-04-15T11:38:41;5.70;;;3.70;;
1294;SDS011;640;48.310;11.728;2023-04-15T11:41:10;9.52;;;3.85;;
1294;SDS011;640;48.310;11.728;2023-04-15T11:43:39;6.40;;;4.15;;
1294;SDS011;640;48.310;11.728;2023-04-15T11:46:07;4.80;;;2.97;;
1294;SDS011;640;48.310;11.728;2023-04-15T11:48:35;8.07;;;3.85;;
1294;SDS011;640;48.310;11.728;2023-04-15T11:51:05;5.50;;;3.28;;
1294;SDS011;640;48.310;11.728;2023-04-15T11:53:40;4.95;;;3.45;;
1294;SDS011;640;48.310;11.728;2023-04-15T11:56:10;5.40;;;3.05;;
1294;SDS011;640;48.310;11.728;2023-04-15T11:58:44;3.92;;;2.70;;
1294;SDS011;640;48.310;11.728;2023-04-15T12:01:13;9.82;;;4.03;;
1294;SDS011;640;48.310;11.728;2023-04-15T12:03:41;3.33;;;1.52;;
1294;SDS011;640;48.310;11.728;2023-04-15T12:06:11;5.15;;;2.78;;
1294;SDS011;640;48.310;11.728;2023-04-15T12:08:57;5.18;;;2.63;;
1294;SDS011;640;48.310;11.728;2023-04-15T12:11:27;5.32;;;3.20;;
1294;SDS011;640;48.310;11.728;2023-04-15T12:13:58;4.93;;;2.80;;
1294;SDS011;640;48.310;11.728;2023-04-15T12:16:32;3.17;;;2.28;;
1294;SDS011;640;48.310;11.728;2023-04-15T12:19:16;6.15;;;3.47;;
1294;SDS011;640;48.310;11.728;2023-04-15T12:21:48;7.53;;;2.88;;
1294;SDS011;640;48.310;11.728;2023-04-15T12:24:20;8.63;;;3.88;;
1294;SDS011;640;48.310;11.728;2023-04-15T12:26:50;4.35;;;2.53;;
1294;SDS011;640;48.310;11.728;2023-04-15T12:29:19;5.50;;;2.67;;
1294;SDS011;640;48.310;11.728;2023-04-15T12:31:48;2.33;;;1.42;;
1294;SDS011;640;48.310;11.728;2023-04-15T12:34:24;5.30;;;2.53;;
1294;SDS011;640;48.310;11.728;2023-04-15T12:36:54;6.40;;;2.40;;
1294;SDS011;640;48.310;11.728;2023-04-15T12:39:25;5.22;;;2.75;;
1294;SDS011;640;48.310;11.728;2023-04-15T12:41:56;7.82;;;4.15;;
1294;SDS011;640;48.310;11.728;2023-04-15T12:44:26;5.60;;;3.33;;
1294;SDS011;640;48.310;11.728;2023-04-15T12:46:55;3.53;;;2.28;;
1294;SDS011;640;48.310;11.728;2023-04-15T12:49:24;8.20;;;4.47;;
1294;SDS011;640;48.310;11.728;2023-04-15T12:51:53;6.50;;;3.65;;
1294;SDS011;640;48.310;11.728;2023-04-15T12:54:26;7.82;;;3.90;;
1294;SDS011;640;48.310;11.728;2023-04-15T12:56:55;6.93;;;3.78;;
1294;SDS011;640;48.310;11.728;2023-04-15T12:59:24;6.68;;;3.75;;
1294;SDS011;640;48.310;11.728;2023-04-15T13:01:52;6.63;;;2.97;;
1294;SDS011;640;48.310;11.728;2023-04-15T13:04:22;6.38;;;3.83;;
1294;SDS011;640;48.310;11.728;2023-04-15T13:06:50;5.65;;;3.72;;
1294;SDS011;640;48.310;11.728;2023-04-15T13:09:19;7.32;;;3.97;;
1294;SDS011;640;48.310;11.728;2023-04-15T13:11:48;5.57;;;3.50;;
1294;SDS011;640;48.310;11.728;2023-04-15T13:14:18;7.35;;;3.15;;
1294;SDS011;640;48.310;11.728;2023-04-15T13:16:47;6.97;;;3.83;;
1294;SDS011;640;48.310;11.728;2023-04-15T13:19:15;6.03;;;3.78;;
1294;SDS011;640;48.310;11.728;2023-04-15T13:21:44;3.53;;;2.50;;
1294;SDS011;640;48.310;11.728;2023-04-15T13:24:12;7.15;;;4.32;;
1294;SDS011;640;48.310;11.728;2023-04-15T13:26:41;7.80;;;4.10;;
1294;SDS011;640;48.310;11.728;2023-04-15T13:29:11;7.13;;;3.67;;
1294;SDS011;640;48.310;11.728;2023-04-15T13:31:39;4.20;;;2.83;;
1294;SDS011;640;48.310;11.728;2023-04-15T13:34:08;5.32;;;3.10;;
1294;SDS011;640;48.310;11.728;2023-04-15T13:36:36;4.03;;;2.58;;
1294;SDS011;640;48.310;11.728;2023-04-15T13:39:05;3.50;;;2.22;;
1294;SDS011;640;48.310;11.728;2023-04-15T13:41:33;4.93;;;2.55;;
1294;SDS011;640;48.310;11.728;2023-04-15T13:44:03;5.20;;;3.58;;
1294;SDS011;640;48.310;11.728;2023-04-15T13:46:33;6.38;;;2.97;;
1294;SDS011;640;48.310;11.728;2023-04-15T13:49:03;4.57;;;1.73;;
1294;SDS011;640;48.310;11.728;2023-04-15T13:51:32;5.80;;;2.83;;
1294;SDS011;640;48.310;11.728;2023-04-15T13:54:02;3.58;;;2.53;;
1294;SDS011;640;48.310;11.728;2023-04-15T13:56:31;6.28;;;2.63;;
1294;SDS011;640;48.310;11.728;2023-04-15T13:58:59;4.93;;;2.60;;
1294;SDS011;640;48.310;11.728;2023-04-15T14:01:28;4.90;;;3.03;;
1294;SDS011;640;48.310;11.728;2023-04-15T14:03:58;6.20;;;3.50;;
1294;SDS011;640;48.310;11.728;2023-04-15T14:06:27;4.70;;;2.90;;
1294;SDS011;640;48.310;11.728;2023-04-15T14:08:56;2.55;;;1.73;;
1294;SDS011;640;48.310;11.728;2023-04-15T14:11:24;2.88;;;1.98;;
1294;SDS011;640;48.310;11.728;2023-04-15T14:13:52;5.15;;;2.38;;
1294;SDS011;640;48.310;11.728;2023-04-15T14:16:21;5.32;;;1.52;;
1294;SDS011;640;48.310;11.728;2023-04-15T14:18:49;3.75;;;1.88;;
1294;SDS011;640;48.310;11.728;2023-04-15T14:21:19;2.95;;;1.95;;
1294;SDS011;640;48.310;11.728;2023-04-15T14:23:48;7.65;;;1.88;;
1294;SDS011;640;48.310;11.728;2023-04-15T14:26:16;5.05;;;2.17;;
1294;SDS011;640;48.310;11.728;2023-04-15T14:28:44;8.48;;;2.65;;
1294;SDS011;640;48.310;11.728;2023-04-15T14:31:14;5.60;;;2.70;;
1294;SDS011;640;48.310;11.728;2023-04-15T14:33:42;3.35;;;2.35;;
1294;SDS011;640;48.310;11.728;2023-04-15T14:36:11;2.15;;;1.63;;
1294;SDS011;640;48.310;11.728;2023-04-15T14:38:41;2.40;;;1.55;;
1294;SDS011;640;48.310;11.728;2023-04-15T14:41:09;5.40;;;1.98;;
1294;SDS011;640;48.310;11.728;2023-04-15T14:43:38;3.50;;;2.30;;
1294;SDS011;640;48.310;11.728;2023-04-15T14:46:06;3.15;;;1.77;;
1294;SDS011;640;48.310;11.728;2023-04-15T14:48:35;5.88;;;2.75;;
1294;SDS011;640;48.310;11.728;2023-04-15T14:51:04;4.38;;;2.03;;
1294;SDS011;640;48.310;11.728;2023-04-15T14:53:32;4.90;;;2.25;;
1294;SDS011;640;48.310;11.728;2023-04-15T14:56:02;5.15;;;2.13;;
1294;SDS011;640;48.310;11.728;2023-04-15T14:58:31;3.30;;;1.92;;
1294;SDS011;640;48.310;11.728;2023-04-15T15:00:59;3.97;;;2.22;;
1294;SDS011;640;48.310;11.728;2023-04-15T15:03:29;3.05;;;2.00;;
1294;SDS011;640;48.310;11.728;2023-04-15T15:05:57;5.78;;;2.95;;
1294;SDS011;640;48.310;11.728;2023-04-15T15:08:25;3.45;;;1.30;;
1294;SDS011;640;48.310;11.728;2023-04-15T15:10:54;3.53;;;2.25;;
1294;SDS011;640;48.310;11.728;2023-04-15T15:13:24;3.85;;;2.33;;
1294;SDS011;640;48.310;11.728;2023-04-15T15:15:52;3.17;;;1.90;;
1294;SDS011;640;48.310;11.728;2023-04-15T15:18:22;2.80;;;1.60;;
1294;SDS011;640;48.310;11.728;2023-04-15T15:20:52;3.92;;;2.28;;
1294;SDS011;640;48.310;11.728;2023-04-15T15:23:20;3.67;;;2.30;;
1294;SDS011;640;48.310;11.728;2023-04-15T15:25:48;2.28;;;1.70;;
1294;SDS011;640;48.310;11.728;2023-04-15T15:28:16;5.15;;;2.10;;
1294;SDS011;640;48.310;11.728;2023-04-15T15:30:46;16.25;;;2.30;;
1294;SDS011;640;48.310;11.728;2023-04-15T15:33:14;3.10;;;2.20;;